QFA930 PAJN-PANC
Flight info
| Callsign | QFA930 |
|---|---|
| Flight time | 1h 31m |
| Altitude | 36000 |
| Route | JNU7 SSR J541 YAK J501 JOH WITTI5 |
| Aircraft | B738/M-L/LB1 |
Departure
| Time | 2026-04-30 10:21 |
|---|---|
| Airport | Juneau International Airport (PAJN) |
Arrival
| Time | 2026-04-30 11:52 |
|---|---|
| Airport | Ted Stevens Anchorage International Airport (PANC) |
| Time | Latitude | Longitude | Altitude | Speed | Heading |
|---|---|---|---|---|---|
| 2026-04-30 09:35 | 58.35843 | -134.58289 | 30 ft | 0 kts | 323° |
| 2026-04-30 10:13 | 58.35840 | -134.58285 | 30 ft | 1 kts | 20° |
| 2026-04-30 10:13 | 58.35830 | -134.58302 | 30 ft | 1 kts | 21° |
| 2026-04-30 10:14 | 58.35816 | -134.58305 | 30 ft | 2 kts | 0° |
| 2026-04-30 10:14 | 58.35800 | -134.58305 | 30 ft | 2 kts | 0° |
| 2026-04-30 10:14 | 58.35777 | -134.58293 | 30 ft | 2 kts | 279° |
| 2026-04-30 10:15 | 58.35775 | -134.58262 | 30 ft | 2 kts | 280° |
| 2026-04-30 10:15 | 58.35775 | -134.58260 | 30 ft | 0 kts | 280° |
| 2026-04-30 10:16 | 58.35775 | -134.58261 | 30 ft | 0 kts | 280° |
| 2026-04-30 10:17 | 58.35776 | -134.58276 | 30 ft | 3 kts | 280° |
| 2026-04-30 10:17 | 58.35794 | -134.58464 | 30 ft | 12 kts | 281° |
| 2026-04-30 10:17 | 58.35772 | -134.58649 | 30 ft | 18 kts | 255° |
| 2026-04-30 10:18 | 58.35791 | -134.58914 | 30 ft | 23 kts | 285° |
| 2026-04-30 10:18 | 58.35835 | -134.59226 | 30 ft | 25 kts | 284° |
| 2026-04-30 10:18 | 58.35879 | -134.59541 | 30 ft | 20 kts | 283° |
| 2026-04-30 10:19 | 58.35793 | -134.59711 | 30 ft | 5 kts | 115° |
| 2026-04-30 10:19 | 58.35791 | -134.59702 | 30 ft | 0 kts | 108° |
| 2026-04-30 10:20 | 58.35730 | -134.59295 | 30 ft | 64 kts | 105° |
| 2026-04-30 10:21 | 58.35563 | -134.58124 | 30 ft | 118 kts | 105° |
| 2026-04-30 10:21 | 58.35323 | -134.56367 | 220 ft | 143 kts | 104° |
| 2026-04-30 10:21 | 58.35054 | -134.54598 | 949 ft | 138 kts | 116° |
| 2026-04-30 10:21 | 58.34362 | -134.53238 | 1401 ft | 156 kts | 147° |
| 2026-04-30 10:22 | 58.33233 | -134.52871 | 1844 ft | 179 kts | 187° |
| 2026-04-30 10:22 | 58.32201 | -134.54237 | 2533 ft | 197 kts | 235° |
| 2026-04-30 10:22 | 58.32011 | -134.56986 | 2928 ft | 229 kts | 282° |
| 2026-04-30 10:22 | 58.32730 | -134.59715 | 3851 ft | 228 kts | 302° |
| 2026-04-30 10:23 | 58.33642 | -134.62182 | 4838 ft | 232 kts | 299° |
| 2026-04-30 10:23 | 58.34496 | -134.64910 | 5500 ft | 245 kts | 294° |
| 2026-04-30 10:23 | 58.35329 | -134.67867 | 6148 ft | 260 kts | 292° |
| 2026-04-30 10:23 | 58.35890 | -134.71216 | 6688 ft | 269 kts | 269° |
| 2026-04-30 10:24 | 58.35959 | -134.74721 | 7628 ft | 270 kts | 265° |
| 2026-04-30 10:24 | 58.35990 | -134.78294 | 8559 ft | 271 kts | 264° |
| 2026-04-30 10:24 | 58.36006 | -134.81890 | 9483 ft | 272 kts | 264° |
| 2026-04-30 10:24 | 58.35986 | -134.85552 | 9931 ft | 279 kts | 256° |
| 2026-04-30 10:25 | 58.35484 | -134.89028 | 10676 ft | 277 kts | 241° |
| 2026-04-30 10:25 | 58.34448 | -134.92226 | 10976 ft | 292 kts | 226° |
| 2026-04-30 10:25 | 58.33031 | -134.95035 | 11726 ft | 296 kts | 223° |
| 2026-04-30 10:25 | 58.31605 | -134.97877 | 12626 ft | 298 kts | 224° |
| 2026-04-30 10:26 | 58.30180 | -135.00784 | 13459 ft | 303 kts | 224° |
| 2026-04-30 10:26 | 58.28737 | -135.03742 | 14265 ft | 307 kts | 224° |
| 2026-04-30 10:26 | 58.27287 | -135.06696 | 15051 ft | 312 kts | 224° |
| 2026-04-30 10:26 | 58.25789 | -135.09724 | 15841 ft | 317 kts | 224° |
| 2026-04-30 10:27 | 58.24263 | -135.12792 | 16622 ft | 322 kts | 224° |
| 2026-04-30 10:27 | 58.22715 | -135.15905 | 17408 ft | 327 kts | 225° |
| 2026-04-30 10:27 | 58.21148 | -135.19060 | 18181 ft | 332 kts | 225° |
| 2026-04-30 10:27 | 58.19864 | -135.22717 | 19001 ft | 338 kts | 243° |
| 2026-04-30 10:28 | 58.19342 | -135.27114 | 19857 ft | 349 kts | 263° |
| 2026-04-30 10:28 | 58.19766 | -135.31705 | 20556 ft | 367 kts | 289° |
| 2026-04-30 10:28 | 58.21057 | -135.35921 | 21235 ft | 378 kts | 295° |
| 2026-04-30 10:28 | 58.22469 | -135.40198 | 21752 ft | 387 kts | 296° |
| 2026-04-30 10:29 | 58.23933 | -135.44531 | 22343 ft | 393 kts | 296° |
| 2026-04-30 10:29 | 58.25412 | -135.48930 | 22956 ft | 398 kts | 296° |
| 2026-04-30 10:29 | 58.26890 | -135.53398 | 23581 ft | 401 kts | 295° |
| 2026-04-30 10:29 | 58.28369 | -135.57930 | 24188 ft | 406 kts | 295° |
| 2026-04-30 10:30 | 58.29861 | -135.62516 | 24773 ft | 410 kts | 295° |
| 2026-04-30 10:30 | 58.31375 | -135.67149 | 25336 ft | 415 kts | 295° |
| 2026-04-30 10:30 | 58.32910 | -135.71826 | 25865 ft | 419 kts | 294° |
| 2026-04-30 10:30 | 58.34459 | -135.76553 | 26380 ft | 423 kts | 294° |
| 2026-04-30 10:31 | 58.35512 | -135.79782 | 26732 ft | 425 kts | 294° |
| 2026-04-30 10:31 | 58.37065 | -135.84558 | 27370 ft | 425 kts | 293° |
| 2026-04-30 10:31 | 58.38622 | -135.89351 | 27984 ft | 425 kts | 292° |
| 2026-04-30 10:31 | 58.40176 | -135.94143 | 28589 ft | 425 kts | 292° |
| 2026-04-30 10:32 | 58.41734 | -135.98967 | 28899 ft | 433 kts | 292° |
| 2026-04-30 10:32 | 58.43328 | -136.03943 | 28976 ft | 445 kts | 292° |
| 2026-04-30 10:32 | 58.44943 | -136.08955 | 29521 ft | 444 kts | 292° |
| 2026-04-30 10:32 | 58.46569 | -136.13986 | 29965 ft | 446 kts | 292° |
| 2026-04-30 10:33 | 58.48193 | -136.19037 | 30409 ft | 446 kts | 291° |
| 2026-04-30 10:33 | 58.49813 | -136.24103 | 30861 ft | 447 kts | 292° |
| 2026-04-30 10:33 | 58.51429 | -136.29173 | 31327 ft | 446 kts | 291° |
| 2026-04-30 10:33 | 58.53043 | -136.34241 | 31786 ft | 446 kts | 292° |
| 2026-04-30 10:34 | 58.54653 | -136.39300 | 32238 ft | 444 kts | 292° |
| 2026-04-30 10:34 | 58.56256 | -136.44347 | 32688 ft | 443 kts | 292° |
| 2026-04-30 10:34 | 58.57849 | -136.49379 | 33135 ft | 441 kts | 292° |
| 2026-04-30 10:34 | 58.59428 | -136.54381 | 33584 ft | 438 kts | 292° |
| 2026-04-30 10:35 | 58.61003 | -136.59381 | 34034 ft | 436 kts | 292° |
| 2026-04-30 10:35 | 58.62563 | -136.64341 | 34483 ft | 433 kts | 292° |
| 2026-04-30 10:35 | 58.64107 | -136.69261 | 34930 ft | 430 kts | 293° |
| 2026-04-30 10:35 | 58.65640 | -136.74158 | 35378 ft | 426 kts | 293° |
| 2026-04-30 10:36 | 58.67159 | -136.79018 | 35829 ft | 422 kts | 294° |
| 2026-04-30 10:36 | 58.68668 | -136.83862 | 36063 ft | 425 kts | 294° |
| 2026-04-30 10:36 | 58.71743 | -136.93796 | 36080 ft | 439 kts | 294° |
| 2026-04-30 10:37 | 58.74902 | -137.03983 | 36079 ft | 446 kts | 294° |
| 2026-04-30 10:37 | 58.78073 | -137.14251 | 36074 ft | 444 kts | 294° |
| 2026-04-30 10:38 | 58.81206 | -137.24468 | 36074 ft | 441 kts | 294° |
| 2026-04-30 10:38 | 58.84317 | -137.34663 | 36074 ft | 440 kts | 294° |
| 2026-04-30 10:39 | 58.87420 | -137.44864 | 36073 ft | 440 kts | 294° |
| 2026-04-30 10:39 | 58.90506 | -137.55056 | 36073 ft | 439 kts | 294° |
| 2026-04-30 10:40 | 58.93583 | -137.65266 | 36072 ft | 439 kts | 294° |
| 2026-04-30 10:40 | 58.96652 | -137.75503 | 36072 ft | 439 kts | 294° |
| 2026-04-30 10:41 | 58.99717 | -137.85754 | 36071 ft | 439 kts | 294° |
| 2026-04-30 10:41 | 59.02773 | -137.96015 | 36071 ft | 439 kts | 294° |
| 2026-04-30 10:42 | 59.05814 | -138.06281 | 36070 ft | 435 kts | 295° |
| 2026-04-30 10:42 | 59.08824 | -138.16489 | 36073 ft | 435 kts | 295° |
| 2026-04-30 10:43 | 59.11824 | -138.26713 | 36074 ft | 435 kts | 295° |
| 2026-04-30 10:43 | 59.14798 | -138.36887 | 36075 ft | 435 kts | 294° |
| 2026-04-30 10:44 | 59.17784 | -138.47149 | 36075 ft | 435 kts | 294° |
| 2026-04-30 10:44 | 59.20757 | -138.57412 | 36075 ft | 434 kts | 294° |
| 2026-04-30 10:45 | 59.23720 | -138.67688 | 36076 ft | 434 kts | 294° |
| 2026-04-30 10:45 | 59.26672 | -138.77967 | 36076 ft | 434 kts | 294° |
| 2026-04-30 10:46 | 59.29596 | -138.88199 | 36076 ft | 434 kts | 294° |
| 2026-04-30 10:46 | 59.32528 | -138.98504 | 36076 ft | 433 kts | 294° |
| 2026-04-30 10:47 | 59.35444 | -139.08796 | 36075 ft | 432 kts | 294° |
| 2026-04-30 10:47 | 59.38350 | -139.19102 | 36075 ft | 432 kts | 294° |
| 2026-04-30 10:48 | 59.41245 | -139.29416 | 36075 ft | 431 kts | 294° |
| 2026-04-30 10:48 | 59.44129 | -139.39734 | 36076 ft | 431 kts | 294° |
| 2026-04-30 10:49 | 59.47005 | -139.50077 | 36077 ft | 431 kts | 294° |
| 2026-04-30 10:49 | 59.49870 | -139.60432 | 36077 ft | 431 kts | 293° |
| 2026-04-30 10:50 | 59.52170 | -139.71179 | 36083 ft | 425 kts | 284° |
| 2026-04-30 10:50 | 59.54045 | -139.82205 | 36079 ft | 424 kts | 283° |
| 2026-04-30 10:51 | 59.55892 | -139.93252 | 36077 ft | 425 kts | 283° |
| 2026-04-30 10:51 | 59.57747 | -140.04298 | 36076 ft | 424 kts | 283° |
| 2026-04-30 10:52 | 59.59586 | -140.15332 | 36075 ft | 423 kts | 283° |
| 2026-04-30 10:52 | 59.61410 | -140.26380 | 36074 ft | 423 kts | 283° |
| 2026-04-30 10:53 | 59.63229 | -140.37437 | 36073 ft | 423 kts | 283° |
| 2026-04-30 10:53 | 59.65035 | -140.48488 | 36071 ft | 422 kts | 283° |
| 2026-04-30 10:54 | 59.66826 | -140.59524 | 36069 ft | 421 kts | 283° |
| 2026-04-30 10:54 | 59.68608 | -140.70569 | 36067 ft | 421 kts | 283° |
| 2026-04-30 10:55 | 59.70379 | -140.81609 | 36064 ft | 420 kts | 283° |
| 2026-04-30 10:55 | 59.72134 | -140.92625 | 36062 ft | 419 kts | 283° |
| 2026-04-30 10:56 | 59.73877 | -141.03635 | 36059 ft | 418 kts | 283° |
| 2026-04-30 10:56 | 59.75609 | -141.14643 | 36058 ft | 418 kts | 283° |
| 2026-04-30 10:57 | 59.77328 | -141.25642 | 36056 ft | 417 kts | 283° |
| 2026-04-30 10:57 | 59.79036 | -141.36635 | 36055 ft | 416 kts | 283° |
| 2026-04-30 10:58 | 59.80730 | -141.47611 | 36053 ft | 415 kts | 283° |
| 2026-04-30 10:58 | 59.82413 | -141.58591 | 36051 ft | 415 kts | 283° |
| 2026-04-30 10:59 | 59.84087 | -141.69575 | 36050 ft | 415 kts | 283° |
| 2026-04-30 10:59 | 59.85748 | -141.80547 | 36049 ft | 414 kts | 283° |
| 2026-04-30 11:00 | 59.87410 | -141.91600 | 36048 ft | 414 kts | 283° |
| 2026-04-30 11:00 | 59.89051 | -142.02577 | 36070 ft | 414 kts | 283° |
| 2026-04-30 11:01 | 59.90684 | -142.13585 | 36082 ft | 414 kts | 283° |
| 2026-04-30 11:01 | 59.92309 | -142.24602 | 36084 ft | 414 kts | 282° |
| 2026-04-30 11:02 | 59.93924 | -142.35625 | 36087 ft | 414 kts | 282° |
| 2026-04-30 11:02 | 59.95527 | -142.46641 | 36093 ft | 413 kts | 282° |
| 2026-04-30 11:03 | 59.97119 | -142.57661 | 36096 ft | 413 kts | 282° |
| 2026-04-30 11:04 | 59.99490 | -142.74205 | 36100 ft | 413 kts | 282° |
| 2026-04-30 11:04 | 60.01062 | -142.85267 | 36101 ft | 415 kts | 282° |
| 2026-04-30 11:05 | 60.02629 | -142.96368 | 36103 ft | 415 kts | 282° |
| 2026-04-30 11:05 | 60.04184 | -143.07456 | 36104 ft | 413 kts | 282° |
| 2026-04-30 11:06 | 60.05728 | -143.18554 | 36106 ft | 414 kts | 282° |
| 2026-04-30 11:06 | 60.07259 | -143.29629 | 36108 ft | 412 kts | 282° |
| 2026-04-30 11:07 | 60.08777 | -143.40687 | 36109 ft | 411 kts | 282° |
| 2026-04-30 11:07 | 60.10282 | -143.51735 | 36110 ft | 411 kts | 282° |
| 2026-04-30 11:08 | 60.11775 | -143.62758 | 36111 ft | 409 kts | 282° |
| 2026-04-30 11:08 | 60.13254 | -143.73768 | 36113 ft | 408 kts | 281° |
| 2026-04-30 11:09 | 60.14721 | -143.84762 | 36113 ft | 408 kts | 281° |
| 2026-04-30 11:09 | 60.16179 | -143.95769 | 36113 ft | 408 kts | 281° |
| 2026-04-30 11:10 | 60.17628 | -144.06782 | 36116 ft | 408 kts | 281° |
| 2026-04-30 11:10 | 60.19068 | -144.17807 | 36118 ft | 408 kts | 281° |
| 2026-04-30 11:11 | 60.20491 | -144.28780 | 36119 ft | 408 kts | 281° |
| 2026-04-30 11:11 | 60.21914 | -144.39838 | 36120 ft | 408 kts | 281° |
| 2026-04-30 11:12 | 60.23329 | -144.50907 | 36121 ft | 409 kts | 281° |
| 2026-04-30 11:12 | 60.24497 | -144.60131 | 36120 ft | 410 kts | 281° |
| 2026-04-30 11:13 | 60.25898 | -144.71250 | 36121 ft | 410 kts | 281° |
| 2026-04-30 11:13 | 60.27294 | -144.82379 | 36122 ft | 410 kts | 281° |
| 2026-04-30 11:14 | 60.28899 | -144.95321 | 36122 ft | 410 kts | 280° |
| 2026-04-30 11:14 | 60.30039 | -145.04588 | 36123 ft | 410 kts | 280° |
| 2026-04-30 11:15 | 60.31404 | -145.15751 | 36123 ft | 410 kts | 280° |
| 2026-04-30 11:15 | 60.32755 | -145.26911 | 36123 ft | 409 kts | 280° |
| 2026-04-30 11:16 | 60.34100 | -145.38052 | 36123 ft | 408 kts | 280° |
| 2026-04-30 11:16 | 60.35432 | -145.49198 | 36123 ft | 408 kts | 280° |
| 2026-04-30 11:17 | 60.36748 | -145.60318 | 36125 ft | 407 kts | 280° |
| 2026-04-30 11:17 | 60.38054 | -145.71422 | 36126 ft | 406 kts | 280° |
| 2026-04-30 11:18 | 60.39350 | -145.82533 | 36127 ft | 406 kts | 279° |
| 2026-04-30 11:18 | 60.41277 | -145.99216 | 36131 ft | 406 kts | 279° |
| 2026-04-30 11:19 | 60.42547 | -146.10321 | 36133 ft | 404 kts | 279° |
| 2026-04-30 11:19 | 60.43806 | -146.21431 | 36137 ft | 406 kts | 279° |
| 2026-04-30 11:20 | 60.45061 | -146.32585 | 36150 ft | 407 kts | 279° |
| 2026-04-30 11:20 | 60.46309 | -146.43765 | 36157 ft | 407 kts | 279° |
| 2026-04-30 11:21 | 60.47545 | -146.54977 | 36158 ft | 408 kts | 279° |
| 2026-04-30 11:21 | 60.49113 | -146.66069 | 36158 ft | 411 kts | 284° |
| 2026-04-30 11:22 | 60.50943 | -146.77138 | 36156 ft | 411 kts | 284° |
| 2026-04-30 11:22 | 60.52759 | -146.88149 | 36157 ft | 411 kts | 284° |
| 2026-04-30 11:23 | 60.54561 | -146.99188 | 36152 ft | 412 kts | 284° |
| 2026-04-30 11:23 | 60.56353 | -147.10218 | 35024 ft | 407 kts | 284° |
| 2026-04-30 11:24 | 60.57234 | -147.15652 | 34503 ft | 402 kts | 284° |
| 2026-04-30 11:24 | 60.58101 | -147.21025 | 33993 ft | 397 kts | 284° |
| 2026-04-30 11:24 | 60.58954 | -147.26332 | 33488 ft | 392 kts | 284° |
| 2026-04-30 11:25 | 60.60619 | -147.36751 | 32500 ft | 383 kts | 284° |
| 2026-04-30 11:25 | 60.61436 | -147.41879 | 32013 ft | 379 kts | 284° |
| 2026-04-30 11:25 | 60.63036 | -147.51969 | 31053 ft | 370 kts | 284° |
| 2026-04-30 11:26 | 60.64596 | -147.61863 | 30076 ft | 363 kts | 284° |
| 2026-04-30 11:26 | 60.65361 | -147.66734 | 29613 ft | 359 kts | 284° |
| 2026-04-30 11:26 | 60.66116 | -147.71554 | 29158 ft | 355 kts | 284° |
| 2026-04-30 11:27 | 60.66861 | -147.76326 | 28708 ft | 351 kts | 284° |
| 2026-04-30 11:27 | 60.67597 | -147.81053 | 28263 ft | 348 kts | 284° |
| 2026-04-30 11:27 | 60.68324 | -147.85736 | 27822 ft | 345 kts | 284° |
| 2026-04-30 11:27 | 60.69043 | -147.90378 | 27385 ft | 341 kts | 284° |
| 2026-04-30 11:28 | 60.70453 | -147.99517 | 26718 ft | 345 kts | 284° |
| 2026-04-30 11:28 | 60.71175 | -148.04241 | 26285 ft | 348 kts | 284° |
| 2026-04-30 11:28 | 60.71894 | -148.08927 | 25841 ft | 344 kts | 284° |
| 2026-04-30 11:29 | 60.72604 | -148.13565 | 25399 ft | 340 kts | 284° |
| 2026-04-30 11:29 | 60.73303 | -148.18153 | 24961 ft | 338 kts | 284° |
| 2026-04-30 11:29 | 60.74686 | -148.27263 | 24091 ft | 334 kts | 284° |
| 2026-04-30 11:30 | 60.76044 | -148.36349 | 23224 ft | 330 kts | 283° |
| 2026-04-30 11:30 | 60.76711 | -148.40834 | 22796 ft | 329 kts | 283° |
| 2026-04-30 11:30 | 60.77375 | -148.45306 | 22366 ft | 328 kts | 283° |
| 2026-04-30 11:31 | 60.78037 | -148.49766 | 21945 ft | 327 kts | 283° |
| 2026-04-30 11:31 | 60.78696 | -148.54218 | 21521 ft | 326 kts | 283° |
| 2026-04-30 11:31 | 60.79351 | -148.58660 | 21098 ft | 325 kts | 283° |
| 2026-04-30 11:31 | 60.80003 | -148.63090 | 20676 ft | 324 kts | 283° |
| 2026-04-30 11:32 | 60.80651 | -148.67511 | 20255 ft | 324 kts | 283° |
| 2026-04-30 11:32 | 60.81296 | -148.71922 | 19837 ft | 323 kts | 283° |
| 2026-04-30 11:32 | 60.81939 | -148.76323 | 19419 ft | 322 kts | 283° |
| 2026-04-30 11:33 | 60.83213 | -148.85088 | 18586 ft | 320 kts | 283° |
| 2026-04-30 11:33 | 60.83845 | -148.89456 | 18172 ft | 319 kts | 283° |
| 2026-04-30 11:33 | 60.84475 | -148.93817 | 17758 ft | 319 kts | 283° |
| 2026-04-30 11:33 | 60.85103 | -148.98175 | 17294 ft | 320 kts | 282° |
| 2026-04-30 11:34 | 60.85732 | -149.02562 | 16820 ft | 321 kts | 283° |
| 2026-04-30 11:34 | 60.86360 | -149.06946 | 16385 ft | 319 kts | 283° |
| 2026-04-30 11:34 | 60.86980 | -149.11292 | 16006 ft | 315 kts | 283° |
| 2026-04-30 11:34 | 60.87597 | -149.15635 | 15970 ft | 320 kts | 283° |
| 2026-04-30 11:35 | 60.88213 | -149.19953 | 15959 ft | 310 kts | 282° |
| 2026-04-30 11:35 | 60.88981 | -149.24030 | 15954 ft | 302 kts | 291° |
| 2026-04-30 11:35 | 60.89856 | -149.27870 | 15951 ft | 291 kts | 290° |
| 2026-04-30 11:35 | 60.90701 | -149.31570 | 15949 ft | 281 kts | 290° |
| 2026-04-30 11:36 | 60.91510 | -149.35104 | 15917 ft | 266 kts | 290° |
| 2026-04-30 11:36 | 60.92273 | -149.38443 | 15873 ft | 251 kts | 290° |
| 2026-04-30 11:36 | 60.92992 | -149.41597 | 15813 ft | 237 kts | 289° |
| 2026-04-30 11:36 | 60.93679 | -149.44635 | 15554 ft | 232 kts | 289° |
| 2026-04-30 11:37 | 60.94356 | -149.47638 | 15232 ft | 231 kts | 289° |
| 2026-04-30 11:37 | 60.95030 | -149.50628 | 14893 ft | 230 kts | 289° |
| 2026-04-30 11:37 | 60.95704 | -149.53614 | 14546 ft | 230 kts | 290° |
| 2026-04-30 11:37 | 60.96378 | -149.56601 | 14193 ft | 230 kts | 290° |
| 2026-04-30 11:38 | 60.97050 | -149.59589 | 13851 ft | 230 kts | 290° |
| 2026-04-30 11:38 | 60.97722 | -149.62579 | 13510 ft | 230 kts | 290° |
| 2026-04-30 11:38 | 60.98394 | -149.65570 | 13166 ft | 230 kts | 290° |
| 2026-04-30 11:38 | 60.99066 | -149.68557 | 12824 ft | 230 kts | 290° |
| 2026-04-30 11:39 | 60.99739 | -149.71553 | 12486 ft | 230 kts | 290° |
| 2026-04-30 11:39 | 61.00585 | -149.74372 | 12186 ft | 233 kts | 305° |
| 2026-04-30 11:39 | 61.01732 | -149.76739 | 11849 ft | 235 kts | 312° |
| 2026-04-30 11:39 | 61.02935 | -149.79046 | 11499 ft | 237 kts | 313° |
| 2026-04-30 11:40 | 61.04140 | -149.81357 | 11177 ft | 236 kts | 313° |
| 2026-04-30 11:40 | 61.05343 | -149.83667 | 10860 ft | 236 kts | 314° |
| 2026-04-30 11:40 | 61.06544 | -149.85974 | 10542 ft | 236 kts | 314° |
| 2026-04-30 11:40 | 61.07743 | -149.88277 | 10231 ft | 235 kts | 314° |
| 2026-04-30 11:41 | 61.08937 | -149.90579 | 9921 ft | 234 kts | 313° |
| 2026-04-30 11:41 | 61.09899 | -149.93266 | 9562 ft | 232 kts | 294° |
| 2026-04-30 11:41 | 61.10413 | -149.96395 | 9224 ft | 229 kts | 276° |
| 2026-04-30 11:41 | 61.10474 | -149.99658 | 8915 ft | 226 kts | 266° |
| 2026-04-30 11:42 | 61.10440 | -150.02900 | 8618 ft | 225 kts | 265° |
| 2026-04-30 11:42 | 61.10400 | -150.06131 | 8322 ft | 224 kts | 266° |
| 2026-04-30 11:42 | 61.10361 | -150.09349 | 8027 ft | 223 kts | 266° |
| 2026-04-30 11:42 | 61.10322 | -150.12546 | 7732 ft | 222 kts | 266° |
| 2026-04-30 11:43 | 61.10283 | -150.15694 | 7442 ft | 221 kts | 266° |
| 2026-04-30 11:43 | 61.10241 | -150.18869 | 7150 ft | 220 kts | 266° |
| 2026-04-30 11:43 | 61.10203 | -150.21965 | 6985 ft | 212 kts | 266° |
| 2026-04-30 11:43 | 61.10161 | -150.25111 | 6499 ft | 221 kts | 266° |
| 2026-04-30 11:44 | 61.10120 | -150.28307 | 6159 ft | 223 kts | 266° |
| 2026-04-30 11:44 | 61.10074 | -150.31504 | 5854 ft | 222 kts | 265° |
| 2026-04-30 11:44 | 61.10001 | -150.34685 | 5559 ft | 221 kts | 264° |
| 2026-04-30 11:44 | 61.09915 | -150.37849 | 5265 ft | 220 kts | 264° |
| 2026-04-30 11:45 | 61.09829 | -150.40997 | 4972 ft | 219 kts | 264° |
| 2026-04-30 11:45 | 61.09746 | -150.44131 | 4678 ft | 218 kts | 264° |
| 2026-04-30 11:45 | 61.09728 | -150.47253 | 4381 ft | 218 kts | 278° |
| 2026-04-30 11:45 | 61.10335 | -150.49982 | 4221 ft | 213 kts | 310° |
| 2026-04-30 11:46 | 61.11401 | -150.51975 | 4154 ft | 200 kts | 317° |
| 2026-04-30 11:46 | 61.12557 | -150.53764 | 3875 ft | 210 kts | 332° |
| 2026-04-30 11:46 | 61.14008 | -150.54394 | 3893 ft | 217 kts | 4° |
| 2026-04-30 11:46 | 61.15415 | -150.53427 | 3906 ft | 213 kts | 35° |
| 2026-04-30 11:47 | 61.16371 | -150.51168 | 3913 ft | 210 kts | 66° |
| 2026-04-30 11:47 | 61.16641 | -150.48263 | 3921 ft | 205 kts | 92° |
| 2026-04-30 11:47 | 61.16657 | -150.45300 | 3930 ft | 206 kts | 91° |
| 2026-04-30 11:47 | 61.16668 | -150.42286 | 3757 ft | 212 kts | 91° |
| 2026-04-30 11:48 | 61.16680 | -150.39248 | 3479 ft | 210 kts | 91° |
| 2026-04-30 11:48 | 61.16692 | -150.36248 | 3206 ft | 207 kts | 91° |
| 2026-04-30 11:48 | 61.16704 | -150.33286 | 2932 ft | 204 kts | 91° |
| 2026-04-30 11:48 | 61.16715 | -150.30405 | 2662 ft | 194 kts | 91° |
| 2026-04-30 11:49 | 61.16724 | -150.27688 | 2412 ft | 183 kts | 91° |
| 2026-04-30 11:49 | 61.16732 | -150.25121 | 2175 ft | 174 kts | 92° |
| 2026-04-30 11:49 | 61.16739 | -150.22668 | 1954 ft | 168 kts | 92° |
| 2026-04-30 11:49 | 61.16746 | -150.20295 | 1745 ft | 164 kts | 91° |
| 2026-04-30 11:50 | 61.16763 | -150.18020 | 1630 ft | 151 kts | 91° |
| 2026-04-30 11:50 | 61.16775 | -150.15881 | 1413 ft | 147 kts | 91° |
| 2026-04-30 11:50 | 61.16782 | -150.13764 | 1157 ft | 146 kts | 91° |
| 2026-04-30 11:50 | 61.16785 | -150.11683 | 930 ft | 143 kts | 91° |
| 2026-04-30 11:51 | 61.16789 | -150.09644 | 702 ft | 141 kts | 91° |
| 2026-04-30 11:51 | 61.16794 | -150.07638 | 495 ft | 138 kts | 91° |
| 2026-04-30 11:51 | 61.16793 | -150.05671 | 324 ft | 135 kts | 92° |
| 2026-04-30 11:51 | 61.16790 | -150.03733 | 177 ft | 134 kts | 92° |
| 2026-04-30 11:52 | 61.16784 | -150.01984 | 162 ft | 105 kts | 91° |
| 2026-04-30 11:52 | 61.16780 | -150.00635 | 161 ft | 83 kts | 91° |
| 2026-04-30 11:52 | 61.16775 | -149.99711 | 161 ft | 45 kts | 90° |
| 2026-04-30 11:52 | 61.16773 | -149.99140 | 161 ft | 36 kts | 87° |
| 2026-04-30 11:53 | 61.16793 | -149.98668 | 161 ft | 29 kts | 82° |
| 2026-04-30 11:53 | 61.16836 | -149.98353 | 161 ft | 23 kts | 66° |
| 2026-04-30 11:53 | 61.16904 | -149.98069 | 161 ft | 21 kts | 58° |
| 2026-04-30 11:53 | 61.17011 | -149.97832 | 161 ft | 24 kts | 19° |
| 2026-04-30 11:54 | 61.17115 | -149.98024 | 161 ft | 25 kts | 270° |
| 2026-04-30 11:54 | 61.17116 | -149.98384 | 161 ft | 25 kts | 270° |
| 2026-04-30 11:54 | 61.17160 | -149.98694 | 161 ft | 24 kts | 324° |
| 2026-04-30 11:54 | 61.17318 | -149.98838 | 161 ft | 24 kts | 339° |
| 2026-04-30 11:55 | 61.17430 | -149.98790 | 161 ft | 14 kts | 64° |
| 2026-04-30 11:55 | 61.17454 | -149.98616 | 161 ft | 14 kts | 83° |
| 2026-04-30 11:55 | 61.17465 | -149.98455 | 161 ft | 6 kts | 81° |
| 2026-04-30 11:55 | 61.17467 | -149.98422 | 161 ft | 0 kts | 82° |